sensor_id;sensor_type;location;lat;lon;timestamp;pressure;altitude;pressure_sealevel;temperature;humidity
84511;BME280;74730;43.858;18.424;2023-12-20T00:01:18;95747.75;;;-0.08;81.33
84511;BME280;74730;43.858;18.424;2023-12-20T00:03:43;95740.69;;;-0.05;81.41
84511;BME280;74730;43.858;18.424;2023-12-20T00:06:10;95736.56;;;-0.06;81.13
84511;BME280;74730;43.858;18.424;2023-12-20T00:08:36;95736.69;;;-0.07;80.45
84511;BME280;74730;43.858;18.424;2023-12-20T00:11:01;95735.63;;;-0.05;79.83
84511;BME280;74730;43.858;18.424;2023-12-20T00:13:27;95731.59;;;-0.07;79.85
84511;BME280;74730;43.858;18.424;2023-12-20T00:15:52;95729.88;;;-0.18;80.26
84511;BME280;74730;43.858;18.424;2023-12-20T00:18:18;95726.31;;;-0.15;80.34
84511;BME280;74730;43.858;18.424;2023-12-20T00:20:44;95722.88;;;-0.14;80.81
84511;BME280;74730;43.858;18.424;2023-12-20T00:23:09;95715.34;;;-0.16;80.73
84511;BME280;74730;43.858;18.424;2023-12-20T00:25:35;95724.34;;;-0.12;80.40
84511;BME280;74730;43.858;18.424;2023-12-20T00:28:01;95714.66;;;-0.07;79.99
84511;BME280;74730;43.858;18.424;2023-12-20T00:30:28;95712.09;;;-0.07;79.87
84511;BME280;74730;43.858;18.424;2023-12-20T00:32:53;95715.81;;;-0.11;79.64
84511;BME280;74730;43.858;18.424;2023-12-20T00:35:19;95707.63;;;-0.14;80.65
84511;BME280;74730;43.858;18.424;2023-12-20T00:37:45;95707.50;;;-0.13;81.85
84511;BME280;74730;43.858;18.424;2023-12-20T00:40:10;95702.97;;;-0.09;81.12
84511;BME280;74730;43.858;18.424;2023-12-20T00:42:36;95704.75;;;-0.10;80.71
84511;BME280;74730;43.858;18.424;2023-12-20T00:45:02;95690.28;;;-0.09;80.24
84511;BME280;74730;43.858;18.424;2023-12-20T00:47:33;95692.25;;;-0.13;80.32
84511;BME280;74730;43.858;18.424;2023-12-20T00:49:58;95688.34;;;-0.17;79.71
84511;BME280;74730;43.858;18.424;2023-12-20T00:52:24;95689.06;;;-0.15;79.31
84511;BME280;74730;43.858;18.424;2023-12-20T00:54:50;95692.06;;;-0.21;80.30
84511;BME280;74730;43.858;18.424;2023-12-20T00:57:16;95683.16;;;-0.15;79.73
84511;BME280;74730;43.858;18.424;2023-12-20T00:59:41;95678.91;;;-0.15;81.22
84511;BME280;74730;43.858;18.424;2023-12-20T01:02:07;95675.78;;;-0.18;80.64
84511;BME280;74730;43.858;18.424;2023-12-20T01:04:32;95672.44;;;-0.19;81.04
84511;BME280;74730;43.858;18.424;2023-12-20T01:06:58;95674.28;;;-0.21;80.29
84511;BME280;74730;43.858;18.424;2023-12-20T01:09:24;95662.34;;;-0.09;79.64
84511;BME280;74730;43.858;18.424;2023-12-20T01:11:52;95669.19;;;-0.10;79.99
84511;BME280;74730;43.858;18.424;2023-12-20T01:14:18;95661.56;;;-0.10;80.01
84511;BME280;74730;43.858;18.424;2023-12-20T01:16:43;95657.88;;;-0.06;79.57
84511;BME280;74730;43.858;18.424;2023-12-20T01:19:09;95655.06;;;-0.03;80.05
84511;BME280;74730;43.858;18.424;2023-12-20T01:21:34;95653.22;;;-0.01;79.22
84511;BME280;74730;43.858;18.424;2023-12-20T01:24:25;95647.94;;;-0.09;78.35
84511;BME280;74730;43.858;18.424;2023-12-20T01:26:51;95643.72;;;-0.19;78.58
84511;BME280;74730;43.858;18.424;2023-12-20T01:29:16;95632.78;;;-0.31;79.02
84511;BME280;74730;43.858;18.424;2023-12-20T01:31:42;95636.38;;;-0.33;79.23
84511;BME280;74730;43.858;18.424;2023-12-20T01:34:07;95636.59;;;-0.36;80.35
84511;BME280;74730;43.858;18.424;2023-12-20T01:36:33;95631.53;;;-0.36;80.58
84511;BME280;74730;43.858;18.424;2023-12-20T01:38:58;95624.50;;;-0.33;81.36
84511;BME280;74730;43.858;18.424;2023-12-20T01:41:49;95623.31;;;-0.29;81.08
84511;BME280;74730;43.858;18.424;2023-12-20T01:44:33;95621.00;;;-0.32;81.12
84511;BME280;74730;43.858;18.424;2023-12-20T01:46:59;95620.91;;;-0.30;81.20
84511;BME280;74730;43.858;18.424;2023-12-20T01:49:25;95615.22;;;-0.23;80.53
84511;BME280;74730;43.858;18.424;2023-12-20T01:51:51;95613.94;;;-0.17;81.39
84511;BME280;74730;43.858;18.424;2023-12-20T01:54:19;95609.19;;;-0.11;81.16
84511;BME280;74730;43.858;18.424;2023-12-20T01:56:50;95599.22;;;-0.03;80.78
84511;BME280;74730;43.858;18.424;2023-12-20T01:59:17;95600.56;;;0.02;80.54
84511;BME280;74730;43.858;18.424;2023-12-20T02:01:43;95592.03;;;0.03;79.43
84511;BME280;74730;43.858;18.424;2023-12-20T02:04:13;95589.75;;;-0.01;79.15
84511;BME280;74730;43.858;18.424;2023-12-20T02:06:42;95593.22;;;-0.02;79.58
84511;BME280;74730;43.858;18.424;2023-12-20T02:09:11;95589.75;;;-0.01;79.61
84511;BME280;74730;43.858;18.424;2023-12-20T02:11:37;95587.66;;;0.05;77.95
84511;BME280;74730;43.858;18.424;2023-12-20T02:14:03;95585.16;;;-0.07;79.06
84511;BME280;74730;43.858;18.424;2023-12-20T02:16:29;95574.75;;;-0.04;78.18
84511;BME280;74730;43.858;18.424;2023-12-20T02:19:19;95566.19;;;-0.03;77.77
84511;BME280;74730;43.858;18.424;2023-12-20T02:21:47;95558.41;;;-0.11;77.35
84511;BME280;74730;43.858;18.424;2023-12-20T02:24:13;95558.22;;;-0.19;77.65
84511;BME280;74730;43.858;18.424;2023-12-20T02:26:39;95552.06;;;-0.37;78.64
84511;BME280;74730;43.858;18.424;2023-12-20T02:29:04;95548.41;;;-0.44;79.11
84511;BME280;74730;43.858;18.424;2023-12-20T02:31:30;95547.94;;;-0.49;79.58
84511;BME280;74730;43.858;18.424;2023-12-20T02:33:55;95544.75;;;-0.51;79.91
84511;BME280;74730;43.858;18.424;2023-12-20T02:36:21;95537.56;;;-0.46;80.25
84511;BME280;74730;43.858;18.424;2023-12-20T02:38:46;95532.50;;;-0.46;80.18
84511;BME280;74730;43.858;18.424;2023-12-20T02:41:12;95538.25;;;-0.44;80.56
84511;BME280;74730;43.858;18.424;2023-12-20T02:43:38;95527.44;;;-0.46;80.42
84511;BME280;74730;43.858;18.424;2023-12-20T02:46:03;95522.09;;;-0.43;80.83
84511;BME280;74730;43.858;18.424;2023-12-20T02:48:29;95525.31;;;-0.41;80.27
84511;BME280;74730;43.858;18.424;2023-12-20T02:50:54;95520.44;;;-0.33;80.19
84511;BME280;74730;43.858;18.424;2023-12-20T02:53:20;95516.47;;;-0.26;79.79
84511;BME280;74730;43.858;18.424;2023-12-20T02:55:45;95517.16;;;-0.24;79.17
84511;BME280;74730;43.858;18.424;2023-12-20T02:58:11;95520.38;;;-0.22;78.91
84511;BME280;74730;43.858;18.424;2023-12-20T03:00:37;95522.47;;;-0.27;78.91
84511;BME280;74730;43.858;18.424;2023-12-20T03:03:02;95519.00;;;-0.26;78.28
84511;BME280;74730;43.858;18.424;2023-12-20T03:05:28;95516.59;;;-0.27;79.15
84511;BME280;74730;43.858;18.424;2023-12-20T03:07:54;95508.59;;;-0.23;78.27
84511;BME280;74730;43.858;18.424;2023-12-20T03:10:19;95510.22;;;-0.22;78.35
84511;BME280;74730;43.858;18.424;2023-12-20T03:12:45;95510.47;;;-0.25;77.86
84511;BME280;74730;43.858;18.424;2023-12-20T03:15:10;95504.72;;;-0.27;77.95
84511;BME280;74730;43.858;18.424;2023-12-20T03:17:36;95506.06;;;-0.23;77.95
84511;BME280;74730;43.858;18.424;2023-12-20T03:20:02;95506.44;;;-0.27;78.36
84511;BME280;74730;43.858;18.424;2023-12-20T03:22:28;95508.31;;;-0.29;78.13
84511;BME280;74730;43.858;18.424;2023-12-20T03:24:53;95507.50;;;-0.30;78.38
84511;BME280;74730;43.858;18.424;2023-12-20T03:27:19;95499.44;;;-0.35;77.60
84511;BME280;74730;43.858;18.424;2023-12-20T03:29:44;95502.09;;;-0.36;78.14
84511;BME280;74730;43.858;18.424;2023-12-20T03:32:10;95494.81;;;-0.30;77.92
84511;BME280;74730;43.858;18.424;2023-12-20T03:34:35;95499.19;;;-0.32;79.02
84511;BME280;74730;43.858;18.424;2023-12-20T03:37:01;95494.13;;;-0.32;78.91
84511;BME280;74730;43.858;18.424;2023-12-20T03:39:27;95489.72;;;-0.30;78.32
84511;BME280;74730;43.858;18.424;2023-12-20T03:41:52;95490.28;;;-0.26;78.63
84511;BME280;74730;43.858;18.424;2023-12-20T03:44:18;95493.88;;;-0.29;77.80
84511;BME280;74730;43.858;18.424;2023-12-20T03:46:43;95489.41;;;-0.36;77.55
84511;BME280;74730;43.858;18.424;2023-12-20T03:49:10;95494.63;;;-0.38;77.08
84511;BME280;74730;43.858;18.424;2023-12-20T03:51:36;95495.91;;;-0.43;77.55
84511;BME280;74730;43.858;18.424;2023-12-20T03:54:02;95488.41;;;-0.45;77.07
84511;BME280;74730;43.858;18.424;2023-12-20T03:56:28;95488.13;;;-0.52;77.42
84511;BME280;74730;43.858;18.424;2023-12-20T03:58:54;95485.81;;;-0.55;77.97
84511;BME280;74730;43.858;18.424;2023-12-20T04:01:19;95477.72;;;-0.49;77.38
84511;BME280;74730;43.858;18.424;2023-12-20T04:03:45;95474.81;;;-0.44;77.36
84511;BME280;74730;43.858;18.424;2023-12-20T04:06:16;95475.56;;;-0.53;77.65
84511;BME280;74730;43.858;18.424;2023-12-20T04:08:41;95473.50;;;-0.59;77.71
84511;BME280;74730;43.858;18.424;2023-12-20T04:11:07;95467.59;;;-0.80;77.75
84511;BME280;74730;43.858;18.424;2023-12-20T04:13:33;95465.19;;;-0.82;78.86
84511;BME280;74730;43.858;18.424;2023-12-20T04:15:58;95458.59;;;-0.73;78.58
84511;BME280;74730;43.858;18.424;2023-12-20T04:18:24;95450.31;;;-0.86;79.55
84511;BME280;74730;43.858;18.424;2023-12-20T04:20:49;95447.69;;;-0.85;79.46
84511;BME280;74730;43.858;18.424;2023-12-20T04:23:16;95442.25;;;-0.80;79.69
84511;BME280;74730;43.858;18.424;2023-12-20T04:25:42;95434.34;;;-0.66;79.25
84511;BME280;74730;43.858;18.424;2023-12-20T04:28:08;95435.41;;;-0.69;79.32
84511;BME280;74730;43.858;18.424;2023-12-20T04:30:33;95422.72;;;-0.69;79.35
84511;BME280;74730;43.858;18.424;2023-12-20T04:32:59;95430.00;;;-0.75;79.95
84511;BME280;74730;43.858;18.424;2023-12-20T04:35:24;95426.03;;;-0.68;79.67
84511;BME280;74730;43.858;18.424;2023-12-20T04:37:50;95417.03;;;-0.61;79.72
84511;BME280;74730;43.858;18.424;2023-12-20T04:40:15;95418.81;;;-0.52;79.86
84511;BME280;74730;43.858;18.424;2023-12-20T04:42:41;95417.38;;;-0.45;78.50
84511;BME280;74730;43.858;18.424;2023-12-20T04:45:07;95419.25;;;-0.47;78.92
84511;BME280;74730;43.858;18.424;2023-12-20T04:47:32;95428.47;;;-0.46;77.97
84511;BME280;74730;43.858;18.424;2023-12-20T04:49:58;95424.75;;;-0.42;78.22
84511;BME280;74730;43.858;18.424;2023-12-20T04:52:24;95429.47;;;-0.37;78.23
84511;BME280;74730;43.858;18.424;2023-12-20T04:54:49;95430.66;;;-0.41;77.50
84511;BME280;74730;43.858;18.424;2023-12-20T04:57:15;95429.69;;;-0.40;77.48
84511;BME280;74730;43.858;18.424;2023-12-20T04:59:40;95425.69;;;-0.43;77.54
84511;BME280;74730;43.858;18.424;2023-12-20T05:02:07;95428.34;;;-0.45;76.95
84511;BME280;74730;43.858;18.424;2023-12-20T05:04:32;95428.84;;;-0.51;76.81
84511;BME280;74730;43.858;18.424;2023-12-20T05:06:58;95423.88;;;-0.52;77.34
84511;BME280;74730;43.858;18.424;2023-12-20T05:09:23;95429.59;;;-0.60;77.98
84511;BME280;74730;43.858;18.424;2023-12-20T05:11:49;95429.59;;;-0.60;79.11
84511;BME280;74730;43.858;18.424;2023-12-20T05:14:14;95432.91;;;-0.59;78.57
84511;BME280;74730;43.858;18.424;2023-12-20T05:16:40;95427.59;;;-0.56;78.27
84511;BME280;74730;43.858;18.424;2023-12-20T05:19:06;95426.72;;;-0.46;77.85
84511;BME280;74730;43.858;18.424;2023-12-20T05:21:32;95423.63;;;-0.49;78.23
84511;BME280;74730;43.858;18.424;2023-12-20T05:23:58;95421.63;;;-0.55;78.47
84511;BME280;74730;43.858;18.424;2023-12-20T05:26:24;95423.44;;;-0.57;78.26
84511;BME280;74730;43.858;18.424;2023-12-20T05:28:49;95420.81;;;-0.56;79.10
84511;BME280;74730;43.858;18.424;2023-12-20T05:31:15;95414.66;;;-0.53;79.19
84511;BME280;74730;43.858;18.424;2023-12-20T05:33:40;95421.25;;;-0.51;78.82
84511;BME280;74730;43.858;18.424;2023-12-20T05:36:06;95420.88;;;-0.46;79.35
84511;BME280;74730;43.858;18.424;2023-12-20T05:38:36;95422.50;;;-0.35;78.18
84511;BME280;74730;43.858;18.424;2023-12-20T05:41:02;95419.84;;;-0.34;78.69
84511;BME280;74730;43.858;18.424;2023-12-20T05:43:29;95422.13;;;-0.31;78.76
84511;BME280;74730;43.858;18.424;2023-12-20T05:45:54;95417.75;;;-0.29;78.59
84511;BME280;74730;43.858;18.424;2023-12-20T05:48:20;95413.59;;;-0.30;78.01
84511;BME280;74730;43.858;18.424;2023-12-20T05:50:45;95410.81;;;-0.27;77.20
84511;BME280;74730;43.858;18.424;2023-12-20T05:53:11;95408.63;;;-0.31;77.71
84511;BME280;74730;43.858;18.424;2023-12-20T05:55:36;95401.84;;;-0.31;77.33
84511;BME280;74730;43.858;18.424;2023-12-20T05:58:02;95405.19;;;-0.30;76.60
84511;BME280;74730;43.858;18.424;2023-12-20T06:00:28;95399.44;;;-0.32;77.34
84511;BME280;74730;43.858;18.424;2023-12-20T06:02:54;95398.75;;;-0.34;77.15
84511;BME280;74730;43.858;18.424;2023-12-20T06:05:20;95407.28;;;-0.35;76.64
84511;BME280;74730;43.858;18.424;2023-12-20T06:07:45;95406.19;;;-0.42;76.71
84511;BME280;74730;43.858;18.424;2023-12-20T06:10:13;95402.84;;;-0.43;77.15
84511;BME280;74730;43.858;18.424;2023-12-20T06:12:39;95404.56;;;-0.43;77.05
84511;BME280;74730;43.858;18.424;2023-12-20T06:15:05;95401.50;;;-0.47;77.01
84511;BME280;74730;43.858;18.424;2023-12-20T06:17:31;95400.78;;;-0.49;76.62
84511;BME280;74730;43.858;18.424;2023-12-20T06:19:57;95403.09;;;-0.46;76.70
84511;BME280;74730;43.858;18.424;2023-12-20T06:22:23;95402.41;;;-0.48;76.82
84511;BME280;74730;43.858;18.424;2023-12-20T06:24:48;95404.41;;;-0.52;76.57
84511;BME280;74730;43.858;18.424;2023-12-20T06:27:14;95397.72;;;-0.53;76.97
84511;BME280;74730;43.858;18.424;2023-12-20T06:29:39;95402.31;;;-0.47;76.84
84511;BME280;74730;43.858;18.424;2023-12-20T06:32:06;95393.28;;;-0.60;76.92
84511;BME280;74730;43.858;18.424;2023-12-20T06:34:31;95400.69;;;-0.48;76.47
84511;BME280;74730;43.858;18.424;2023-12-20T06:36:57;95394.19;;;-0.61;76.88
84511;BME280;74730;43.858;18.424;2023-12-20T06:39:23;95388.19;;;-0.60;77.64
84511;BME280;74730;43.858;18.424;2023-12-20T06:41:48;95387.94;;;-0.57;77.92
84511;BME280;74730;43.858;18.424;2023-12-20T06:44:14;95388.88;;;-0.58;77.43
84511;BME280;74730;43.858;18.424;2023-12-20T06:46:40;95377.59;;;-0.45;79.74
84511;BME280;74730;43.858;18.424;2023-12-20T06:49:05;95383.22;;;-0.41;78.19
84511;BME280;74730;43.858;18.424;2023-12-20T06:51:31;95376.03;;;-0.36;77.42
84511;BME280;74730;43.858;18.424;2023-12-20T06:53:57;95378.44;;;-0.34;76.95
84511;BME280;74730;43.858;18.424;2023-12-20T06:56:22;95373.38;;;-0.34;76.81
84511;BME280;74730;43.858;18.424;2023-12-20T06:58:48;95370.03;;;-0.35;76.78
84511;BME280;74730;43.858;18.424;2023-12-20T07:01:14;95362.28;;;-0.33;77.06
84511;BME280;74730;43.858;18.424;2023-12-20T07:03:40;95361.22;;;-0.31;77.09
84511;BME280;74730;43.858;18.424;2023-12-20T07:06:07;95357.50;;;-0.27;76.61
84511;BME280;74730;43.858;18.424;2023-12-20T07:08:32;95351.13;;;-0.21;76.42
84511;BME280;74730;43.858;18.424;2023-12-20T07:10:58;95354.63;;;-0.13;76.86
84511;BME280;74730;43.858;18.424;2023-12-20T07:13:23;95354.94;;;-0.06;76.47
84511;BME280;74730;43.858;18.424;2023-12-20T07:15:49;95353.84;;;-0.04;76.98
84511;BME280;74730;43.858;18.424;2023-12-20T07:18:15;95353.84;;;-0.04;76.31
84511;BME280;74730;43.858;18.424;2023-12-20T07:20:40;95350.25;;;-0.01;75.90
84511;BME280;74730;43.858;18.424;2023-12-20T07:23:06;95349.19;;;0.02;75.70
84511;BME280;74730;43.858;18.424;2023-12-20T07:25:31;95344.13;;;0.02;75.05
84511;BME280;74730;43.858;18.424;2023-12-20T07:28:00;95342.41;;;0.12;75.13
84511;BME280;74730;43.858;18.424;2023-12-20T07:30:26;95343.91;;;0.24;75.28
84511;BME280;74730;43.858;18.424;2023-12-20T07:32:51;95342.06;;;0.35;75.13
84511;BME280;74730;43.858;18.424;2023-12-20T07:35:18;95349.56;;;0.47;73.88
84511;BME280;74730;43.858;18.424;2023-12-20T07:37:44;95349.03;;;0.53;73.21
84511;BME280;74730;43.858;18.424;2023-12-20T07:40:10;95346.38;;;0.54;73.94
84511;BME280;74730;43.858;18.424;2023-12-20T07:42:36;95341.31;;;0.64;73.62
84511;BME280;74730;43.858;18.424;2023-12-20T07:45:02;95333.69;;;0.64;74.15
84511;BME280;74730;43.858;18.424;2023-12-20T07:47:27;95326.03;;;0.73;74.91
84511;BME280;74730;43.858;18.424;2023-12-20T07:49:53;95324.97;;;0.85;75.68
84511;BME280;74730;43.858;18.424;2023-12-20T07:52:19;95320.69;;;0.96;75.28
84511;BME280;74730;43.858;18.424;2023-12-20T07:54:45;95326.19;;;1.01;74.05
84511;BME280;74730;43.858;18.424;2023-12-20T07:57:11;95327.75;;;1.11;73.84
84511;BME280;74730;43.858;18.424;2023-12-20T07:59:37;95318.25;;;1.04;72.54
84511;BME280;74730;43.858;18.424;2023-12-20T08:02:03;95318.78;;;1.07;72.53
84511;BME280;74730;43.858;18.424;2023-12-20T08:04:28;95324.38;;;1.20;73.94
84511;BME280;74730;43.858;18.424;2023-12-20T08:06:54;95325.47;;;1.18;72.31
84511;BME280;74730;43.858;18.424;2023-12-20T08:09:19;95317.44;;;1.13;72.46
84511;BME280;74730;43.858;18.424;2023-12-20T08:11:48;95315.84;;;1.12;71.63
84511;BME280;74730;43.858;18.424;2023-12-20T08:14:16;95320.81;;;1.04;72.07
84511;BME280;74730;43.858;18.424;2023-12-20T08:16:41;95315.31;;;0.89;72.32
84511;BME280;74730;43.858;18.424;2023-12-20T08:19:07;95304.47;;;0.97;70.86
84511;BME280;74730;43.858;18.424;2023-12-20T08:21:33;95307.97;;;0.96;71.38
84511;BME280;74730;43.858;18.424;2023-12-20T08:24:01;95314.41;;;1.00;72.42
84511;BME280;74730;43.858;18.424;2023-12-20T08:26:27;95320.28;;;1.00;73.30
84511;BME280;74730;43.858;18.424;2023-12-20T08:28:52;95318.25;;;1.13;72.36
84511;BME280;74730;43.858;18.424;2023-12-20T08:31:18;95321.72;;;1.12;71.39
84511;BME280;74730;43.858;18.424;2023-12-20T08:33:45;95316.13;;;1.09;72.40
84511;BME280;74730;43.858;18.424;2023-12-20T08:36:11;95312.47;;;1.21;73.44
84511;BME280;74730;43.858;18.424;2023-12-20T08:38:37;95309.13;;;1.20;70.95
84511;BME280;74730;43.858;18.424;2023-12-20T08:41:03;95307.78;;;1.16;70.21
84511;BME280;74730;43.858;18.424;2023-12-20T08:43:39;95307.56;;;1.00;71.66
84511;BME280;74730;43.858;18.424;2023-12-20T08:46:08;95315.72;;;1.13;71.97
84511;BME280;74730;43.858;18.424;2023-12-20T08:48:37;95320.91;;;1.21;70.77
84511;BME280;74730;43.858;18.424;2023-12-20T08:51:04;95312.59;;;1.29;70.77
84511;BME280;74730;43.858;18.424;2023-12-20T08:53:29;95309.63;;;1.33;70.96
84511;BME280;74730;43.858;18.424;2023-12-20T08:55:55;95306.56;;;1.30;70.65
84511;BME280;74730;43.858;18.424;2023-12-20T08:58:21;95302.97;;;1.32;71.13
84511;BME280;74730;43.858;18.424;2023-12-20T09:00:46;95302.38;;;1.39;69.60
84511;BME280;74730;43.858;18.424;2023-12-20T09:03:12;95300.50;;;1.41;70.98
84511;BME280;74730;43.858;18.424;2023-12-20T09:05:38;95301.38;;;1.59;72.64
84511;BME280;74730;43.858;18.424;2023-12-20T09:08:04;95296.34;;;1.76;71.25
84511;BME280;74730;43.858;18.424;2023-12-20T09:10:30;95298.06;;;1.86;70.24
84511;BME280;74730;43.858;18.424;2023-12-20T09:12:55;95287.69;;;1.97;69.66
84511;BME280;74730;43.858;18.424;2023-12-20T09:15:26;95287.44;;;2.17;68.85
84511;BME280;74730;43.858;18.424;2023-12-20T09:17:52;95286.66;;;2.52;68.26
84511;BME280;74730;43.858;18.424;2023-12-20T09:20:18;95285.47;;;2.82;68.26
84511;BME280;74730;43.858;18.424;2023-12-20T09:22:44;95275.28;;;3.08;67.86
84511;BME280;74730;43.858;18.424;2023-12-20T09:25:10;95272.00;;;3.41;65.25
84511;BME280;74730;43.858;18.424;2023-12-20T09:27:37;95264.25;;;3.59;65.93
84511;BME280;74730;43.858;18.424;2023-12-20T09:30:03;95264.41;;;3.91;63.98
84511;BME280;74730;43.858;18.424;2023-12-20T09:32:30;95251.22;;;4.12;61.53
84511;BME280;74730;43.858;18.424;2023-12-20T09:34:56;95245.66;;;4.41;60.46
84511;BME280;74730;43.858;18.424;2023-12-20T09:37:25;95234.03;;;4.79;58.54
84511;BME280;74730;43.858;18.424;2023-12-20T09:39:51;95235.78;;;4.78;59.15
84511;BME280;74730;43.858;18.424;2023-12-20T09:42:23;95234.63;;;5.05;58.14
84511;BME280;74730;43.858;18.424;2023-12-20T09:44:50;95227.09;;;5.20;57.95
84511;BME280;74730;43.858;18.424;2023-12-20T09:47:15;95221.34;;;5.26;58.37
84511;BME280;74730;43.858;18.424;2023-12-20T09:49:44;95220.66;;;5.32;56.96
84511;BME280;74730;43.858;18.424;2023-12-20T09:52:11;95209.91;;;5.36;56.76
84511;BME280;74730;43.858;18.424;2023-12-20T09:54:38;95211.41;;;5.31;56.28
84511;BME280;74730;43.858;18.424;2023-12-20T09:57:04;95203.28;;;5.11;56.87
84511;BME280;74730;43.858;18.424;2023-12-20T09:59:29;95206.19;;;5.08;57.40
84511;BME280;74730;43.858;18.424;2023-12-20T10:01:56;95202.38;;;4.80;57.56
84511;BME280;74730;43.858;18.424;2023-12-20T10:04:27;95205.91;;;4.63;58.22
84511;BME280;74730;43.858;18.424;2023-12-20T10:06:53;95206.22;;;4.52;59.62
84511;BME280;74730;43.858;18.424;2023-12-20T10:09:20;95198.84;;;4.40;59.11
84511;BME280;74730;43.858;18.424;2023-12-20T10:11:46;95191.47;;;4.13;60.13
84511;BME280;74730;43.858;18.424;2023-12-20T10:14:11;95184.88;;;3.86;60.82
84511;BME280;74730;43.858;18.424;2023-12-20T10:16:37;95188.81;;;3.73;62.00
84511;BME280;74730;43.858;18.424;2023-12-20T10:19:03;95177.94;;;3.63;61.64
84511;BME280;74730;43.858;18.424;2023-12-20T10:21:29;95185.59;;;3.63;62.18
84511;BME280;74730;43.858;18.424;2023-12-20T10:23:56;95186.16;;;3.48;63.18
84511;BME280;74730;43.858;18.424;2023-12-20T10:26:23;95177.84;;;3.38;64.32
84511;BME280;74730;43.858;18.424;2023-12-20T10:28:56;95173.88;;;3.44;64.33
84511;BME280;74730;43.858;18.424;2023-12-20T10:31:32;95174.03;;;3.42;65.28
84511;BME280;74730;43.858;18.424;2023-12-20T10:33:59;95166.19;;;3.36;65.94
84511;BME280;74730;43.858;18.424;2023-12-20T10:36:26;95165.22;;;3.37;64.96
84511;BME280;74730;43.858;18.424;2023-12-20T10:38:53;95166.34;;;3.34;64.51
84511;BME280;74730;43.858;18.424;2023-12-20T10:41:30;95161.63;;;3.47;64.21
84511;BME280;74730;43.858;18.424;2023-12-20T10:44:00;95164.19;;;3.55;64.56
84511;BME280;74730;43.858;18.424;2023-12-20T10:46:27;95159.09;;;3.64;64.98
84511;BME280;74730;43.858;18.424;2023-12-20T10:48:54;95161.19;;;3.68;64.29
84511;BME280;74730;43.858;18.424;2023-12-20T10:51:21;95156.09;;;3.76;63.46
84511;BME280;74730;43.858;18.424;2023-12-20T10:53:47;95148.13;;;3.71;63.80
84511;BME280;74730;43.858;18.424;2023-12-20T10:56:16;95154.38;;;3.85;63.04
84511;BME280;74730;43.858;18.424;2023-12-20T10:58:43;95142.03;;;3.72;63.76
84511;BME280;74730;43.858;18.424;2023-12-20T11:01:12;95128.31;;;3.73;63.72
84511;BME280;74730;43.858;18.424;2023-12-20T11:03:44;95127.66;;;3.63;64.22
84511;BME280;74730;43.858;18.424;2023-12-20T11:08:53;95133.81;;;3.44;64.75
84511;BME280;74730;43.858;18.424;2023-12-20T11:11:35;95121.53;;;3.40;65.44
84511;BME280;74730;43.858;18.424;2023-12-20T11:14:08;95117.53;;;3.37;65.16
84511;BME280;74730;43.858;18.424;2023-12-20T11:16:37;95111.16;;;3.33;65.99
84511;BME280;74730;43.858;18.424;2023-12-20T11:19:06;95106.84;;;3.34;65.81
84511;BME280;74730;43.858;18.424;2023-12-20T11:21:32;95095.50;;;3.36;68.16
84511;BME280;74730;43.858;18.424;2023-12-20T11:23:59;95096.66;;;3.42;68.04
84511;BME280;74730;43.858;18.424;2023-12-20T11:26:28;95097.59;;;3.41;66.78
84511;BME280;74730;43.858;18.424;2023-12-20T11:29:29;95089.81;;;3.50;66.33
84511;BME280;74730;43.858;18.424;2023-12-20T11:31:55;95090.28;;;3.54;66.43
84511;BME280;74730;43.858;18.424;2023-12-20T11:34:21;95080.41;;;3.51;66.60
84511;BME280;74730;43.858;18.424;2023-12-20T11:36:48;95086.50;;;3.66;66.57
84511;BME280;74730;43.858;18.424;2023-12-20T11:39:22;95085.22;;;3.78;66.11
84511;BME280;74730;43.858;18.424;2023-12-20T11:41:52;95086.03;;;3.87;65.69
84511;BME280;74730;43.858;18.424;2023-12-20T11:44:19;95085.72;;;3.98;65.61
84511;BME280;74730;43.858;18.424;2023-12-20T11:46:46;95090.50;;;4.17;65.00
84511;BME280;74730;43.858;18.424;2023-12-20T11:49:11;95087.31;;;4.23;64.14
84511;BME280;74730;43.858;18.424;2023-12-20T11:51:41;95078.03;;;4.38;64.46
84511;BME280;74730;43.858;18.424;2023-12-20T11:54:07;95066.38;;;4.44;64.09
84511;BME280;74730;43.858;18.424;2023-12-20T11:56:35;95060.59;;;4.58;63.91
84511;BME280;74730;43.858;18.424;2023-12-20T11:59:01;95056.53;;;4.80;63.13
84511;BME280;74730;43.858;18.424;2023-12-20T12:01:27;95055.22;;;4.84;62.71
84511;BME280;74730;43.858;18.424;2023-12-20T12:04:06;95055.66;;;5.04;62.88
84511;BME280;74730;43.858;18.424;2023-12-20T12:06:32;95051.13;;;5.06;63.22
84511;BME280;74730;43.858;18.424;2023-12-20T12:08:59;95045.66;;;5.17;63.21
84511;BME280;74730;43.858;18.424;2023-12-20T12:11:24;95045.78;;;5.23;62.38
84511;BME280;74730;43.858;18.424;2023-12-20T12:13:51;95037.78;;;5.26;62.45
84511;BME280;74730;43.858;18.424;2023-12-20T12:16:20;95038.56;;;5.27;62.18
84511;BME280;74730;43.858;18.424;2023-12-20T12:18:46;95026.31;;;5.45;61.05
84511;BME280;74730;43.858;18.424;2023-12-20T12:21:19;95028.34;;;5.50;61.37
84511;BME280;74730;43.858;18.424;2023-12-20T12:23:46;95024.50;;;5.54;61.22
84511;BME280;74730;43.858;18.424;2023-12-20T12:26:11;95018.78;;;5.66;60.48
84511;BME280;74730;43.858;18.424;2023-12-20T12:28:40;95017.75;;;5.75;60.40
84511;BME280;74730;43.858;18.424;2023-12-20T12:31:07;95023.06;;;5.74;61.32
84511;BME280;74730;43.858;18.424;2023-12-20T12:33:37;95012.94;;;5.80;60.29
84511;BME280;74730;43.858;18.424;2023-12-20T12:36:03;95012.72;;;5.82;60.47
84511;BME280;74730;43.858;18.424;2023-12-20T12:38:30;95009.13;;;5.99;60.19
84511;BME280;74730;43.858;18.424;2023-12-20T12:40:56;95009.03;;;6.07;58.92
84511;BME280;74730;43.858;18.424;2023-12-20T12:43:22;95000.34;;;5.94;60.12
84511;BME280;74730;43.858;18.424;2023-12-20T12:45:48;94993.53;;;6.01;60.52
84511;BME280;74730;43.858;18.424;2023-12-20T12:48:14;94995.78;;;6.04;62.69
84511;BME280;74730;43.858;18.424;2023-12-20T12:50:40;94983.94;;;6.03;61.04
84511;BME280;74730;43.858;18.424;2023-12-20T12:53:06;94980.47;;;5.96;60.46
84511;BME280;74730;43.858;18.424;2023-12-20T12:55:32;94978.59;;;5.90;60.56